Time,TemperatureF,DewpointF,PressureIn,WindDirection,WindDirectionDegrees,WindSpeedMPH,WindSpeedGustMPH,Humidity,HourlyPrecipIn,Conditions,Clouds,dailyrainin,SoftwareType,DateUTC
2013-09-12 00:01:00,70.9,69.1,29.87,SW,225,2.3,2.3,94,0.00,CLR,,0.00,WeatherDisplay:10.37,2013-09-12 04:01:00,
2013-09-12 00:06:00,70.9,69.1,29.87,SW,225,2.3,2.3,94,0.00,CLR,,0.00,WeatherDisplay:10.37,2013-09-12 04:06:00,
2013-09-12 00:11:00,70.9,69.1,29.87,West,270,2.3,2.3,94,0.00,CLR,,0.00,WeatherDisplay:10.37,2013-09-12 04:11:00,
2013-09-12 00:16:00,70.9,69.4,29.87,West,270,4.6,4.6,95,0.00,CLR,,0.00,WeatherDisplay:10.37,2013-09-12 04:16:00,
2013-09-12 00:21:00,70.9,69.4,29.86,SW,225,3.5,3.5,95,0.00,CLR,,0.00,WeatherDisplay:10.37,2013-09-12 04:21:00,
2013-09-12 00:26:00,70.9,69.4,29.86,SW,225,2.3,0.0,95,0.00,CLR,,0.00,WeatherDisplay:10.37,2013-09-12 04:26:00,
2013-09-12 00:31:00,71.1,69.6,29.86,West,270,3.5,3.5,95,0.00,CLR,,0.00,WeatherDisplay:10.37,2013-09-12 04:31:00,
2013-09-12 00:36:00,71.1,69.6,29.85,West,270,2.3,2.3,95,0.00,CLR,,0.00,WeatherDisplay:10.37,2013-09-12 04:36:00,
2013-09-12 00:41:00,71.1,69.6,29.85,SW,225,3.5,3.5,95,0.00,CLR,,0.00,WeatherDisplay:10.37,2013-09-12 04:41:00,
2013-09-12 00:46:00,71.1,69.6,29.85,SW,225,2.3,2.3,95,0.00,CLR,,0.00,WeatherDisplay:10.37,2013-09-12 04:46:00,
2013-09-12 00:51:00,71.1,69.6,29.85,SW,225,3.5,3.5,95,0.00,CLR,,0.00,WeatherDisplay:10.37,2013-09-12 04:51:00,
2013-09-12 00:56:00,70.9,69.7,29.86,WSW,248,4.6,4.6,96,0.00,CLR,,0.00,WeatherDisplay:10.37,2013-09-12 04:56:00,
2013-09-12 01:01:00,70.9,69.7,29.85,SW,225,3.5,3.5,96,0.00,CLR,,0.00,WeatherDisplay:10.37,2013-09-12 05:01:00,
2013-09-12 01:06:00,70.9,69.7,29.85,SW,225,3.5,3.5,96,0.00,CLR,,0.00,WeatherDisplay:10.37,2013-09-12 05:06:00,
2013-09-12 01:11:00,70.9,69.7,29.85,West,270,3.5,3.5,96,0.00,CLR,,0.00,WeatherDisplay:10.37,2013-09-12 05:11:00,
2013-09-12 01:16:00,70.9,70.0,29.85,SW,225,4.6,4.6,97,0.00,CLR,,0.00,WeatherDisplay:10.37,2013-09-12 05:16:00,
2013-09-12 01:21:00,70.9,70.0,29.85,West,270,3.5,3.5,97,0.00,CLR,,0.00,WeatherDisplay:10.37,2013-09-12 05:21:00,
2013-09-12 01:26:00,70.9,70.0,29.85,SW,225,2.3,2.3,97,0.00,CLR,,0.00,WeatherDisplay:10.37,2013-09-12 05:26:00,
2013-09-12 01:31:00,70.9,70.0,29.85,SW,225,3.5,0.0,97,0.00,CLR,,0.00,WeatherDisplay:10.37,2013-09-12 05:31:00,
2013-09-12 01:36:00,70.7,69.8,29.85,SW,225,2.3,2.3,97,0.00,CLR,,0.00,WeatherDisplay:10.37,2013-09-12 05:36:00,
2013-09-12 01:41:00,70.7,70.1,29.85,SW,225,3.5,3.5,98,0.00,CLR,,0.00,WeatherDisplay:10.37,2013-09-12 05:41:00,
2013-09-12 01:46:00,70.7,70.1,29.85,WSW,248,3.5,3.5,98,0.00,CLR,,0.00,WeatherDisplay:10.37,2013-09-12 05:46:00,
2013-09-12 01:51:00,70.5,69.9,29.85,SW,225,3.5,3.5,98,0.00,CLR,,0.00,WeatherDisplay:10.37,2013-09-12 05:51:00,
2013-09-12 01:56:00,70.5,69.9,29.85,West,270,2.3,2.3,98,0.00,CLR,,0.00,WeatherDisplay:10.37,2013-09-12 05:56:00,
2013-09-12 02:01:00,70.5,69.9,29.85,SW,225,3.5,3.5,98,0.00,CLR,,0.00,WeatherDisplay:10.37,2013-09-12 06:01:00,
2013-09-12 02:06:00,70.5,69.9,29.85,SW,225,3.5,3.5,98,0.00,CLR,,0.00,WeatherDisplay:10.37,2013-09-12 06:06:00,
2013-09-12 02:11:00,70.5,70.2,29.85,SW,225,2.3,0.0,99,0.00,CLR,,0.00,WeatherDisplay:10.37,2013-09-12 06:11:00,
2013-09-12 02:16:00,70.5,70.2,29.85,SW,225,3.5,3.5,99,0.00,CLR,,0.00,WeatherDisplay:10.37,2013-09-12 06:16:00,
2013-09-12 02:21:00,70.3,70.0,29.85,SW,225,3.5,3.5,99,0.00,CLR,,0.00,WeatherDisplay:10.37,2013-09-12 06:21:00,
2013-09-12 02:26:00,70.3,70.0,29.85,SW,225,3.5,3.5,99,0.00,CLR,,0.00,WeatherDisplay:10.37,2013-09-12 06:26:00,
2013-09-12 02:31:00,70.3,70.0,29.84,West,270,3.5,3.5,99,0.00,CLR,,0.00,WeatherDisplay:10.37,2013-09-12 06:31:00,
2013-09-12 02:36:00,70.3,70.0,29.84,West,270,3.5,0.0,99,0.00,CLR,,0.00,WeatherDisplay:10.37,2013-09-12 06:36:00,
2013-09-12 02:41:00,70.2,69.9,29.84,SW,225,3.5,3.5,99,0.00,CLR,,0.00,WeatherDisplay:10.37,2013-09-12 06:41:00,
2013-09-12 02:46:00,70.2,69.9,29.84,West,270,3.5,3.5,99,0.00,CLR,,0.00,WeatherDisplay:10.37,2013-09-12 06:46:00,
2013-09-12 02:51:00,70.2,69.9,29.84,SW,225,3.5,3.5,99,0.00,CLR,,0.00,WeatherDisplay:10.37,2013-09-12 06:51:00,
2013-09-12 02:56:00,70.2,69.9,29.84,SW,225,3.5,3.5,99,0.00,CLR,,0.00,WeatherDisplay:10.37,2013-09-12 06:56:00,
2013-09-12 03:01:00,70.2,69.9,29.83,SW,225,3.5,3.5,99,0.00,CLR,,0.00,WeatherDisplay:10.37,2013-09-12 07:01:00,
2013-09-12 03:06:00,70.2,69.9,29.83,SW,225,3.5,3.5,99,0.00,CLR,,0.00,WeatherDisplay:10.37,2013-09-12 07:06:00,
2013-09-12 03:11:00,69.8,69.5,29.84,SW,225,4.6,4.6,99,0.00,CLR,,0.00,WeatherDisplay:10.37,2013-09-12 07:11:00,
2013-09-12 03:16:00,69.6,69.3,29.83,SW,225,3.5,3.5,99,0.00,CLR,,0.00,WeatherDisplay:10.37,2013-09-12 07:16:00,
2013-09-12 03:21:00,69.4,69.1,29.83,SW,225,4.6,4.6,99,0.00,CLR,,0.00,WeatherDisplay:10.37,2013-09-12 07:21:00,
2013-09-12 03:26:00,69.3,69.0,29.83,SW,225,5.8,5.8,99,0.00,CLR,,0.00,WeatherDisplay:10.37,2013-09-12 07:26:00,
2013-09-12 03:31:00,69.1,68.8,29.84,SW,225,3.5,3.5,99,0.00,CLR,,0.00,WeatherDisplay:10.37,2013-09-12 07:31:00,
2013-09-12 03:36:00,68.7,68.4,29.83,SW,225,3.5,3.5,99,0.00,CLR,,0.00,WeatherDisplay:10.37,2013-09-12 07:36:00,
2013-09-12 03:41:00,68.5,68.2,29.83,SW,225,5.8,5.8,99,0.00,CLR,,0.00,WeatherDisplay:10.37,2013-09-12 07:41:00,
2013-09-12 03:46:00,68.4,68.1,29.83,SW,225,3.5,3.5,99,0.00,CLR,,0.00,WeatherDisplay:10.37,2013-09-12 07:46:00,
2013-09-12 03:51:00,68.2,67.9,29.83,West,270,3.5,3.5,99,0.00,CLR,,0.00,WeatherDisplay:10.37,2013-09-12 07:51:00,
2013-09-12 03:56:00,68.0,67.7,29.82,SW,225,3.5,3.5,99,0.00,CLR,,0.00,WeatherDisplay:10.37,2013-09-12 07:56:00,
2013-09-12 04:01:00,67.8,67.5,29.82,SW,225,3.5,3.5,99,0.00,CLR,,0.00,WeatherDisplay:10.37,2013-09-12 08:01:00,
2013-09-12 04:07:00,67.8,67.5,29.82,SW,225,3.5,3.5,99,0.00,CLR,,0.00,WeatherDisplay:10.37,2013-09-12 08:07:00,
2013-09-12 04:12:00,67.5,67.2,29.83,SW,225,3.5,3.5,99,0.00,CLR,,0.00,WeatherDisplay:10.37,2013-09-12 08:12:00,
2013-09-12 04:17:00,67.3,67.0,29.83,SW,225,3.5,3.5,99,0.00,CLR,,0.00,WeatherDisplay:10.37,2013-09-12 08:17:00,
2013-09-12 04:22:00,67.1,66.8,29.82,SW,225,4.6,4.6,99,0.00,CLR,,0.00,WeatherDisplay:10.37,2013-09-12 08:22:00,
2013-09-12 04:27:00,67.1,66.8,29.83,SW,225,5.8,5.8,99,0.00,CLR,,0.00,WeatherDisplay:10.37,2013-09-12 08:27:00,
2013-09-12 04:32:00,66.9,66.6,29.82,SW,225,4.6,4.6,99,0.00,CLR,,0.00,WeatherDisplay:10.37,2013-09-12 08:32:00,
2013-09-12 04:37:00,66.9,66.6,29.82,SW,225,3.5,3.5,99,0.00,CLR,,0.00,WeatherDisplay:10.37,2013-09-12 08:37:00,
2013-09-12 04:42:00,66.7,66.5,29.82,SW,225,4.6,4.6,99,0.00,CLR,,0.00,WeatherDisplay:10.37,2013-09-12 08:42:00,
2013-09-12 04:47:00,66.7,66.5,29.82,SW,225,4.6,4.6,99,0.00,CLR,,0.00,WeatherDisplay:10.37,2013-09-12 08:47:00,
2013-09-12 04:52:00,66.7,66.5,29.82,SW,225,4.6,4.6,99,0.00,CLR,,0.00,WeatherDisplay:10.37,2013-09-12 08:52:00,
2013-09-12 04:57:00,66.6,66.3,29.82,SSW,202,5.8,5.8,99,0.00,CLR,,0.00,WeatherDisplay:10.37,2013-09-12 08:57:00,
2013-09-12 05:02:00,66.6,66.3,29.83,SW,225,5.8,5.8,99,0.00,CLR,,0.00,WeatherDisplay:10.37,2013-09-12 09:02:00,
2013-09-12 05:07:00,66.6,66.3,29.83,SW,225,5.8,5.8,99,0.00,CLR,,0.00,WeatherDisplay:10.37,2013-09-12 09:07:00,
2013-09-12 05:12:00,66.4,66.1,29.83,SW,225,3.5,3.5,99,0.00,CLR,,0.00,WeatherDisplay:10.37,2013-09-12 09:12:00,
2013-09-12 05:17:00,66.4,66.1,29.83,SW,225,5.8,5.8,99,0.00,CLR,,0.00,WeatherDisplay:10.37,2013-09-12 09:17:00,
2013-09-12 05:22:00,66.4,66.1,29.83,SSW,202,3.5,3.5,99,0.00,CLR,,0.00,WeatherDisplay:10.37,2013-09-12 09:22:00,
2013-09-12 05:27:00,66.4,66.1,29.83,SW,225,4.6,4.6,99,0.00,CLR,,0.00,WeatherDisplay:10.37,2013-09-12 09:27:00,
2013-09-12 05:32:00,66.4,66.1,29.83,SW,225,4.6,4.6,99,0.00,CLR,,0.00,WeatherDisplay:10.37,2013-09-12 09:32:00,
2013-09-12 05:37:00,66.2,65.9,29.83,SW,225,3.5,3.5,99,0.00,CLR,,0.00,WeatherDisplay:10.37,2013-09-12 09:37:00,
2013-09-12 05:42:00,66.2,65.9,29.83,SW,225,4.6,4.6,99,0.00,CLR,,0.00,WeatherDisplay:10.37,2013-09-12 09:42:00,
2013-09-12 05:47:00,66.2,65.9,29.83,SW,225,5.8,5.8,99,0.00,CLR,,0.00,WeatherDisplay:10.37,2013-09-12 09:47:00,
2013-09-12 05:52:00,66.0,65.7,29.83,SW,225,3.5,3.5,99,0.00,CLR,,0.00,WeatherDisplay:10.37,2013-09-12 09:52:00,
2013-09-12 05:57:00,66.0,65.7,29.83,SW,225,3.5,3.5,99,0.00,CLR,,0.00,WeatherDisplay:10.37,2013-09-12 09:57:00,
2013-09-12 06:02:00,66.0,65.7,29.83,SW,225,3.5,3.5,99,0.00,CLR,,0.00,WeatherDisplay:10.37,2013-09-12 10:02:00,
2013-09-12 06:07:00,66.0,65.7,29.83,SW,225,3.5,3.5,99,0.00,CLR,,0.00,WeatherDisplay:10.37,2013-09-12 10:07:00,
2013-09-12 06:12:00,66.0,65.7,29.83,SW,225,3.5,3.5,99,0.00,CLR,,0.00,WeatherDisplay:10.37,2013-09-12 10:12:00,
2013-09-12 06:17:00,65.8,65.6,29.83,SW,225,3.8,3.8,99,0.00,CLR,,0.00,WeatherDisplay:10.37,2013-09-12 10:17:00,
2013-09-12 06:22:00,65.8,65.6,29.83,SW,225,3.5,3.5,99,0.00,CLR,,0.00,WeatherDisplay:10.37,2013-09-12 10:22:00,
2013-09-12 06:27:00,65.7,65.4,29.83,West,270,3.5,3.5,99,0.00,CLR,,0.00,WeatherDisplay:10.37,2013-09-12 10:27:00,
2013-09-12 06:32:00,65.7,65.4,29.83,SW,225,3.5,3.5,99,0.00,CLR,,0.00,WeatherDisplay:10.37,2013-09-12 10:32:00,
2013-09-12 06:37:00,65.7,65.4,29.83,SW,225,2.3,2.3,99,0.00,CLR,,0.00,WeatherDisplay:10.37,2013-09-12 10:37:00,
2013-09-12 06:42:00,65.5,65.2,29.83,SW,225,3.5,3.5,99,0.00,CLR,,0.00,WeatherDisplay:10.37,2013-09-12 10:42:00,
2013-09-12 06:47:00,65.5,65.2,29.83,SW,225,3.5,3.5,99,0.00,CLR,,0.00,WeatherDisplay:10.37,2013-09-12 10:47:00,
2013-09-12 06:52:00,65.5,65.2,29.83,SW,225,3.5,3.5,99,0.00,CLR,,0.00,WeatherDisplay:10.37,2013-09-12 10:52:00,
2013-09-12 06:57:00,65.5,65.2,29.83,West,270,4.6,4.6,99,0.00,CLR,,0.00,WeatherDisplay:10.37,2013-09-12 10:57:00,
2013-09-12 07:02:00,65.5,65.2,29.83,West,270,2.3,2.3,99,0.00,CLR,,0.00,WeatherDisplay:10.37,2013-09-12 11:02:00,
2013-09-12 07:07:00,65.5,65.2,29.84,West,270,2.3,2.3,99,0.00,CLR,,0.00,WeatherDisplay:10.37,2013-09-12 11:07:00,
2013-09-12 07:12:00,65.8,65.6,29.84,NW,315,3.5,0.0,99,0.00,CLR,,0.00,WeatherDisplay:10.37,2013-09-12 11:12:00,
2013-09-12 07:17:00,66.0,65.7,29.84,NE,45,6.9,0.0,99,0.00,CLR,,0.00,WeatherDisplay:10.37,2013-09-12 11:17:00,
2013-09-12 07:22:00,66.4,66.1,29.84,SSW,202,4.6,4.6,99,0.00,CLR,,0.00,WeatherDisplay:10.37,2013-09-12 11:22:00,
2013-09-12 07:27:00,66.7,66.5,29.84,SSE,158,5.8,5.8,99,0.00,CLR,,0.00,WeatherDisplay:10.37,2013-09-12 11:27:00,
2013-09-12 07:32:00,66.9,66.6,29.84,South,180,3.5,0.0,99,0.00,CLR,,0.00,WeatherDisplay:10.37,2013-09-12 11:32:00,
2013-09-12 07:37:00,67.3,67.0,29.84,South,180,5.8,5.8,99,0.00,CLR,,0.00,WeatherDisplay:10.37,2013-09-12 11:37:00,
2013-09-12 07:42:00,67.5,67.2,29.84,North,0,2.3,2.3,99,0.00,CLR,,0.00,WeatherDisplay:10.37,2013-09-12 11:42:00,
2013-09-12 07:47:00,67.6,67.3,29.84,NW,315,3.5,3.5,99,0.00,CLR,,0.00,WeatherDisplay:10.37,2013-09-12 11:47:00,
2013-09-12 07:52:00,67.8,67.5,29.84,NW,315,5.8,5.8,99,0.00,CLR,,0.00,WeatherDisplay:10.37,2013-09-12 11:52:00,
2013-09-12 07:57:00,67.8,67.5,29.85,NW,315,2.3,2.3,99,0.00,CLR,,0.00,WeatherDisplay:10.37,2013-09-12 11:57:00,
2013-09-12 08:02:00,68.0,67.7,29.84,West,270,5.8,5.8,99,0.00,CLR,,0.00,WeatherDisplay:10.37,2013-09-12 12:02:00,
2013-09-12 08:07:00,68.0,67.7,29.84,West,270,5.8,5.8,99,0.00,CLR,,0.00,WeatherDisplay:10.37,2013-09-12 12:07:00,
2013-09-12 08:12:00,68.0,67.7,29.85,NW,315,3.5,3.5,99,0.00,CLR,,0.00,WeatherDisplay:10.37,2013-09-12 12:12:00,
2013-09-12 08:17:00,68.0,67.7,29.85,NW,315,5.8,5.8,99,0.00,CLR,,0.00,WeatherDisplay:10.37,2013-09-12 12:17:00,
2013-09-12 08:22:00,68.0,67.7,29.84,North,0,2.3,2.3,99,0.00,CLR,,0.00,WeatherDisplay:10.37,2013-09-12 12:22:00,
2013-09-12 08:27:00,67.8,67.5,29.85,NNW,338,4.6,4.6,99,0.00,CLR,,0.00,WeatherDisplay:10.37,2013-09-12 12:27:00,
2013-09-12 08:32:00,67.8,67.5,29.85,NW,315,6.9,6.9,99,0.00,CLR,,0.00,WeatherDisplay:10.37,2013-09-12 12:32:00,
2013-09-12 08:37:00,68.0,67.7,29.85,NW,315,3.5,3.5,99,0.00,CLR,,0.00,WeatherDisplay:10.37,2013-09-12 12:37:00,
2013-09-12 08:42:00,68.2,67.9,29.85,NW,315,4.6,4.6,99,0.00,CLR,,0.00,WeatherDisplay:10.37,2013-09-12 12:42:00,
2013-09-12 08:47:00,68.2,67.9,29.85,NW,315,2.3,0.0,99,0.00,CLR,,0.00,WeatherDisplay:10.37,2013-09-12 12:47:00,
2013-09-12 08:52:00,68.2,67.9,29.85,North,0,5.8,5.8,99,0.00,CLR,,0.00,WeatherDisplay:10.37,2013-09-12 12:52:00,
2013-09-12 08:57:00,68.2,67.9,29.85,NW,315,6.9,6.9,99,0.00,CLR,,0.00,WeatherDisplay:10.37,2013-09-12 12:57:00,
2013-09-12 09:02:00,68.0,67.7,29.85,NW,315,2.3,0.0,99,0.00,CLR,,0.00,WeatherDisplay:10.37,2013-09-12 13:02:00,
2013-09-12 09:07:00,68.0,67.7,29.85,NW,315,2.3,0.0,99,0.00,CLR,,0.00,WeatherDisplay:10.37,2013-09-12 13:07:00,
2013-09-12 09:12:00,67.8,67.5,29.85,SW,225,5.8,5.8,99,0.00,CLR,,0.00,WeatherDisplay:10.37,2013-09-12 13:12:00,
2013-09-12 09:17:00,67.8,67.5,29.85,North,0,6.9,6.9,99,0.00,CLR,,0.00,WeatherDisplay:10.37,2013-09-12 13:17:00,
2013-09-12 09:22:00,67.8,67.5,29.85,NW,315,5.8,5.8,99,0.00,CLR,,0.00,WeatherDisplay:10.37,2013-09-12 13:22:00,
2013-09-12 09:27:00,67.8,67.5,29.85,West,270,3.5,3.5,99,0.00,CLR,,0.00,WeatherDisplay:10.37,2013-09-12 13:27:00,
2013-09-12 09:32:00,68.0,67.7,29.85,North,0,5.8,5.8,99,0.00,CLR,,0.00,WeatherDisplay:10.37,2013-09-12 13:32:00,
2013-09-12 09:37:00,68.0,67.7,29.85,North,0,6.9,6.9,99,0.00,CLR,,0.00,WeatherDisplay:10.37,2013-09-12 13:37:00,
2013-09-12 09:42:00,68.4,67.8,29.86,NW,315,5.8,5.8,98,0.00,CLR,,0.00,WeatherDisplay:10.37,2013-09-12 13:42:00,
2013-09-12 09:47:00,68.5,67.7,29.85,North,0,6.9,6.9,97,0.00,CLR,,0.00,WeatherDisplay:10.37,2013-09-12 13:47:00,
2013-09-12 09:52:00,68.9,68.0,29.85,West,270,8.1,0.0,97,0.00,CLR,,0.00,WeatherDisplay:10.37,2013-09-12 13:52:00,
2013-09-12 09:57:00,69.4,67.9,29.85,NW,315,8.1,8.1,95,0.00,CLR,,0.00,WeatherDisplay:10.37,2013-09-12 13:57:00,
2013-09-12 10:02:00,69.4,67.9,29.85,NW,315,3.5,3.5,95,0.00,CLR,,0.00,WeatherDisplay:10.37,2013-09-12 14:02:00,
2013-09-12 10:07:00,69.3,66.8,29.85,NW,315,4.5,4.5,92,0.00,CLR,,0.00,WeatherDisplay:10.37,2013-09-12 14:07:00,
2013-09-12 10:12:00,69.4,67.3,29.85,North,0,5.8,5.8,93,0.00,CLR,,0.00,WeatherDisplay:10.37,2013-09-12 14:12:00,
2013-09-12 10:17:00,70.2,67.7,29.85,NW,315,4.6,4.6,92,0.00,CLR,,0.00,WeatherDisplay:10.37,2013-09-12 14:17:00,
2013-09-12 10:22:00,70.2,66.1,29.85,North,0,10.4,10.4,87,0.00,CLR,,0.00,WeatherDisplay:10.37,2013-09-12 14:22:00,
2013-09-12 10:27:00,70.2,65.1,29.85,North,0,11.5,11.5,84,0.00,CLR,,0.00,WeatherDisplay:10.37,2013-09-12 14:27:00,
2013-09-12 10:32:00,70.5,66.5,29.85,NW,315,6.9,6.9,87,0.00,CLR,,0.00,WeatherDisplay:10.37,2013-09-12 14:32:00,
2013-09-12 10:37:00,71.1,65.6,29.85,NW,315,8.1,8.1,83,0.00,CLR,,0.00,WeatherDisplay:10.37,2013-09-12 14:37:00,
2013-09-12 10:42:00,71.1,64.9,29.86,North,0,6.9,6.9,81,0.00,CLR,,0.00,WeatherDisplay:10.37,2013-09-12 14:42:00,
2013-09-12 10:47:00,71.4,65.3,29.85,North,0,4.6,4.6,81,0.00,CLR,,0.00,WeatherDisplay:10.37,2013-09-12 14:47:00,
2013-09-12 10:52:00,71.2,64.4,29.85,NW,315,12.7,12.7,79,0.00,CLR,,0.00,WeatherDisplay:10.37,2013-09-12 14:52:00,
2013-09-12 10:57:00,71.8,64.9,29.85,NW,315,12.7,12.7,79,0.00,CLR,,0.00,WeatherDisplay:10.37,2013-09-12 14:57:00,
2013-09-12 11:02:00,72.0,64.4,29.85,NW,315,6.9,6.9,77,0.00,CLR,,0.00,WeatherDisplay:10.37,2013-09-12 15:02:00,
2013-09-12 11:07:00,72.3,64.7,29.85,NW,315,6.9,6.9,77,0.00,CLR,,0.00,WeatherDisplay:10.37,2013-09-12 15:07:00,
2013-09-12 11:12:00,73.0,65.4,29.86,NW,315,4.6,4.6,77,0.00,CLR,,0.00,WeatherDisplay:10.37,2013-09-12 15:12:00,
2013-09-12 11:17:00,73.2,65.6,29.85,NW,315,5.8,5.8,77,0.00,CLR,,0.00,WeatherDisplay:10.37,2013-09-12 15:17:00,
2013-09-12 11:22:00,73.6,63.6,29.86,North,0,9.2,9.2,71,0.00,CLR,,0.00,WeatherDisplay:10.37,2013-09-12 15:22:00,
2013-09-12 11:27:00,73.8,64.2,29.86,North,0,5.8,5.8,72,0.00,CLR,,0.00,WeatherDisplay:10.37,2013-09-12 15:27:00,
2013-09-12 11:32:00,74.1,65.3,29.86,NW,315,3.5,3.5,74,0.00,CLR,,0.00,WeatherDisplay:10.37,2013-09-12 15:32:00,
2013-09-12 11:37:00,74.5,65.6,29.85,North,0,8.1,8.1,74,0.00,CLR,,0.00,WeatherDisplay:10.37,2013-09-12 15:37:00,
2013-09-12 11:42:00,75.4,64.5,29.85,North,0,6.9,6.9,69,0.00,CLR,,0.00,WeatherDisplay:10.37,2013-09-12 15:42:00,
2013-09-12 11:47:00,75.0,63.7,29.85,North,0,3.5,3.5,68,0.00,CLR,,0.00,WeatherDisplay:10.37,2013-09-12 15:47:00,
2013-09-12 11:52:00,75.6,63.8,29.85,NNW,338,11.5,11.5,67,0.00,CLR,,0.00,WeatherDisplay:10.37,2013-09-12 15:52:00,
2013-09-12 11:57:00,75.7,64.0,29.85,North,0,3.5,3.5,67,0.00,CLR,,0.00,WeatherDisplay:10.37,2013-09-12 15:57:00,
2013-09-12 12:02:00,75.9,63.3,29.85,North,0,6.9,6.9,65,0.00,CLR,,0.00,WeatherDisplay:10.37,2013-09-12 16:02:00,
2013-09-12 12:07:00,75.6,61.6,29.85,NW,315,6.9,6.9,62,0.00,CLR,,0.00,WeatherDisplay:10.37,2013-09-12 16:07:00,
2013-09-12 12:13:00,75.7,60.9,29.85,North,0,7.6,7.6,60,0.00,CLR,,0.00,WeatherDisplay:10.37,2013-09-12 16:13:00,
2013-09-12 12:18:00,76.3,60.9,29.85,North,0,4.6,5.4,59,0.00,CLR,,0.00,WeatherDisplay:10.37,2013-09-12 16:18:00,
2013-09-12 12:23:00,76.1,61.2,29.85,North,0,5.8,5.8,60,0.00,CLR,,0.00,WeatherDisplay:10.37,2013-09-12 16:23:00,
2013-09-12 12:28:00,76.3,60.9,29.85,NW,315,4.6,4.6,59,0.00,CLR,,0.00,WeatherDisplay:10.37,2013-09-12 16:28:00,
2013-09-12 12:33:00,76.6,61.2,29.85,North,0,4.6,4.6,59,0.00,CLR,,0.00,WeatherDisplay:10.37,2013-09-12 16:33:00,
2013-09-12 12:38:00,76.8,61.9,29.85,NW,315,5.8,5.8,60,0.00,CLR,,0.00,WeatherDisplay:10.37,2013-09-12 16:38:00,
2013-09-12 12:43:00,76.6,60.3,29.85,North,0,5.8,5.8,57,0.00,CLR,,0.00,WeatherDisplay:10.37,2013-09-12 16:43:00,
2013-09-12 12:48:00,76.8,60.4,29.85,SW,225,5.8,5.8,57,0.00,CLR,,0.00,WeatherDisplay:10.37,2013-09-12 16:48:00,
2013-09-12 12:53:00,77.4,59.9,29.85,NW,315,8.1,8.1,55,0.00,CLR,,0.00,WeatherDisplay:10.37,2013-09-12 16:53:00,
2013-09-12 12:58:00,77.2,59.2,29.84,NW,315,4.6,4.6,54,0.00,CLR,,0.00,WeatherDisplay:10.37,2013-09-12 16:58:00,
2013-09-12 13:03:00,77.4,60.4,29.85,NW,315,5.8,5.8,56,0.00,CLR,,0.00,WeatherDisplay:10.37,2013-09-12 17:03:00,
2013-09-12 13:08:00,77.5,60.1,29.84,NW,315,5.8,5.8,55,0.00,CLR,,0.00,WeatherDisplay:10.37,2013-09-12 17:08:00,
2013-09-12 13:13:00,78.1,60.6,29.85,South,180,15.0,15.0,55,0.00,CLR,,0.00,WeatherDisplay:10.37,2013-09-12 17:13:00,
2013-09-12 13:18:00,77.9,58.3,29.84,North,0,11.5,11.5,51,0.00,CLR,,0.00,WeatherDisplay:10.37,2013-09-12 17:18:00,
2013-09-12 13:23:00,77.7,58.7,29.85,North,0,11.4,11.4,52,0.00,CLR,,0.00,WeatherDisplay:10.37,2013-09-12 17:23:00,
2013-09-12 13:28:00,78.1,60.6,29.84,NE,45,5.8,5.8,55,0.00,CLR,,0.00,WeatherDisplay:10.37,2013-09-12 17:28:00,
2013-09-12 13:33:00,78.8,59.7,29.85,SW,225,5.8,5.8,52,0.00,CLR,,0.00,WeatherDisplay:10.37,2013-09-12 17:33:00,
2013-09-12 13:38:00,78.8,58.6,29.84,NW,315,8.1,8.1,50,0.00,CLR,,0.00,WeatherDisplay:10.37,2013-09-12 17:38:00,
2013-09-12 13:43:00,78.4,59.4,29.84,NW,315,5.8,5.8,52,0.00,CLR,,0.00,WeatherDisplay:10.37,2013-09-12 17:43:00,
2013-09-12 13:48:00,79.2,59.5,29.84,North,0,4.6,4.6,51,0.00,CLR,,0.00,WeatherDisplay:10.37,2013-09-12 17:48:00,
2013-09-12 13:53:00,79.5,60.4,29.84,North,0,3.5,3.5,52,0.00,CLR,,0.00,WeatherDisplay:10.37,2013-09-12 17:53:00,
2013-09-12 13:58:00,79.3,58.5,29.84,North,0,8.1,8.1,49,0.00,CLR,,0.00,WeatherDisplay:10.37,2013-09-12 17:58:00,
2013-09-12 14:03:00,79.3,59.6,29.83,West,270,5.8,5.8,51,0.00,CLR,,0.00,WeatherDisplay:10.37,2013-09-12 18:03:00,
2013-09-12 14:08:00,78.8,58.6,29.84,NW,315,5.8,5.8,50,0.00,CLR,,0.00,WeatherDisplay:10.37,2013-09-12 18:08:00,
2013-09-12 14:13:00,78.8,59.7,29.83,West,270,5.8,0.0,52,0.00,CLR,,0.00,WeatherDisplay:10.37,2013-09-12 18:13:00,
2013-09-12 14:18:00,79.5,59.8,29.83,NW,315,3.5,3.8,51,0.00,CLR,,0.00,WeatherDisplay:10.37,2013-09-12 18:18:00,
2013-09-12 14:23:00,79.5,59.2,29.83,NW,315,5.8,5.8,50,0.00,CLR,,0.00,WeatherDisplay:10.37,2013-09-12 18:23:00,
2013-09-12 14:28:00,79.3,58.5,29.83,North,0,8.1,9.2,49,0.00,CLR,,0.00,WeatherDisplay:10.37,2013-09-12 18:28:00,
2013-09-12 14:33:00,79.0,58.8,29.82,NW,315,10.4,10.4,50,0.00,CLR,,0.00,WeatherDisplay:10.37,2013-09-12 18:33:00,
2013-09-12 14:38:00,79.5,59.2,29.83,NW,315,11.5,11.5,50,0.00,CLR,,0.00,WeatherDisplay:10.37,2013-09-12 18:38:00,
2013-09-12 14:43:00,79.2,58.9,29.83,South,180,8.1,8.1,50,0.00,CLR,,0.00,WeatherDisplay:10.37,2013-09-12 18:43:00,
2013-09-12 14:48:00,78.8,58.0,29.83,North,0,8.1,8.1,49,0.00,CLR,,0.00,WeatherDisplay:10.37,2013-09-12 18:48:00,
2013-09-12 14:53:00,78.4,58.3,29.82,North,0,9.2,9.2,50,0.00,CLR,,0.00,WeatherDisplay:10.37,2013-09-12 18:53:00,
2013-09-12 14:58:00,78.8,59.7,29.82,North,0,8.1,8.1,52,0.00,CLR,,0.00,WeatherDisplay:10.37,2013-09-12 18:58:00,
2013-09-12 15:03:00,78.8,59.1,29.83,NW,315,4.6,4.6,51,0.00,CLR,,0.00,WeatherDisplay:10.37,2013-09-12 19:03:00,
2013-09-12 15:08:00,78.4,60.4,29.83,North,0,4.6,4.6,54,0.00,CLR,,0.00,WeatherDisplay:10.37,2013-09-12 19:08:00,
2013-09-12 15:13:00,78.4,60.4,29.82,NW,315,9.2,9.2,54,0.00,CLR,,0.00,WeatherDisplay:10.37,2013-09-12 19:13:00,
2013-09-12 15:18:00,78.3,59.7,29.82,North,0,12.7,12.7,53,0.00,CLR,,0.00,WeatherDisplay:10.37,2013-09-12 19:18:00,
2013-09-12 15:23:00,77.5,60.1,29.82,North,0,16.1,16.1,55,0.00,CLR,,0.00,WeatherDisplay:10.37,2013-09-12 19:23:00,
2013-09-12 15:28:00,77.4,60.4,29.82,North,0,12.7,12.7,56,0.00,CLR,,0.00,WeatherDisplay:10.37,2013-09-12 19:28:00,
2013-09-12 15:33:00,76.6,59.3,29.81,North,0,12.7,12.7,55,0.00,CLR,,0.00,WeatherDisplay:10.37,2013-09-12 19:33:00,
2013-09-12 15:38:00,76.3,59.9,29.81,West,270,6.9,6.9,57,0.00,CLR,,0.00,WeatherDisplay:10.37,2013-09-12 19:38:00,
2013-09-12 15:43:00,77.0,60.1,29.81,North,0,4.6,5.4,56,0.00,CLR,,0.00,WeatherDisplay:10.37,2013-09-12 19:43:00,
2013-09-12 15:48:00,77.4,60.9,29.82,SW,225,4.6,4.6,57,0.00,CLR,,0.00,WeatherDisplay:10.37,2013-09-12 19:48:00,
2013-09-12 15:53:00,77.4,60.4,29.81,North,0,5.8,5.8,56,0.00,CLR,,0.00,WeatherDisplay:10.37,2013-09-12 19:53:00,
2013-09-12 15:58:00,77.4,60.9,29.81,SSW,202,4.6,4.6,57,0.00,CLR,,0.00,WeatherDisplay:10.37,2013-09-12 19:58:00,
2013-09-12 16:03:00,77.7,61.3,29.80,NW,315,3.5,3.5,57,0.00,CLR,,0.00,WeatherDisplay:10.37,2013-09-12 20:03:00,
2013-09-12 16:08:00,78.4,60.9,29.80,North,0,9.2,9.2,55,0.00,CLR,,0.00,WeatherDisplay:10.37,2013-09-12 20:08:00,
2013-09-12 16:13:00,78.1,60.6,29.79,WNW,292,5.8,5.8,55,0.00,CLR,,0.00,WeatherDisplay:10.37,2013-09-12 20:13:00,
2013-09-12 16:18:00,77.7,60.8,29.80,NW,315,4.6,4.6,56,0.00,CLR,,0.00,WeatherDisplay:10.37,2013-09-12 20:18:00,
2013-09-12 16:23:00,77.4,60.9,29.79,North,0,2.3,2.3,57,0.00,CLR,,0.00,WeatherDisplay:10.37,2013-09-12 20:23:00,
2013-09-12 16:28:00,77.2,60.8,29.79,NW,315,5.8,5.8,57,0.00,CLR,,0.00,WeatherDisplay:10.37,2013-09-12 20:28:00,
2013-09-12 16:33:00,76.5,61.1,29.79,North,0,3.5,3.5,59,0.00,CLR,,0.00,WeatherDisplay:10.37,2013-09-12 20:33:00,
2013-09-12 16:38:00,76.1,61.2,29.80,North,0,3.5,3.5,60,0.00,CLR,,0.00,WeatherDisplay:10.37,2013-09-12 20:38:00,
2013-09-12 16:43:00,75.9,61.5,29.79,North,0,3.5,0.0,61,0.00,CLR,,0.00,WeatherDisplay:10.37,2013-09-12 20:43:00,
2013-09-12 16:48:00,75.7,61.8,29.79,NW,315,1.2,0.0,62,0.00,CLR,,0.00,WeatherDisplay:10.37,2013-09-12 20:48:00,
2013-09-12 16:53:00,75.9,62.0,29.79,NW,315,1.2,1.2,62,0.00,CLR,,0.00,WeatherDisplay:10.37,2013-09-12 20:53:00,
2013-09-12 16:58:00,75.4,61.9,29.80,NW,315,5.8,5.8,63,0.00,CLR,,0.00,WeatherDisplay:10.37,2013-09-12 20:58:00,
2013-09-12 17:03:00,75.2,61.7,29.81,North,0,6.9,6.9,63,0.00,CLR,,0.00,WeatherDisplay:10.37,2013-09-12 21:03:00,
2013-09-12 17:08:00,75.2,61.7,29.81,North,0,6.9,6.9,63,0.00,CLR,,0.00,WeatherDisplay:10.37,2013-09-12 21:08:00,
2013-09-12 17:13:00,68.9,58.3,29.82,North,0,19.6,19.6,69,0.05,RA,,0.05,WeatherDisplay:10.37,2013-09-12 21:13:00,
2013-09-12 17:18:00,66.0,59.3,29.82,North,0,9.2,9.2,79,0.09,RA,,0.09,WeatherDisplay:10.37,2013-09-12 21:18:00,
2013-09-12 17:23:00,63.9,58.6,29.83,SW,225,5.8,5.8,83,0.09,RA,,0.11,WeatherDisplay:10.37,2013-09-12 21:23:00,
2013-09-12 17:28:00,62.8,59.5,29.83,NW,315,9.2,9.2,89,0.14,RA,,0.14,WeatherDisplay:10.37,2013-09-12 21:28:00,
2013-09-12 17:33:00,62.2,59.6,29.83,North,0,5.8,5.8,91,0.17,RA,,0.17,WeatherDisplay:10.37,2013-09-12 21:33:00,
2013-09-12 17:38:00,61.9,60.1,29.83,North,0,5.8,5.8,94,0.18,RA,,0.18,WeatherDisplay:10.37,2013-09-12 21:38:00,
2013-09-12 17:43:00,61.9,60.7,29.83,NNW,338,5.8,5.8,96,0.19,RA,,0.19,WeatherDisplay:10.37,2013-09-12 21:43:00,
2013-09-12 17:48:00,61.9,61.0,29.84,SW,225,5.8,5.8,97,0.21,RA,,0.21,WeatherDisplay:10.37,2013-09-12 21:48:00,
2013-09-12 17:53:00,62.1,61.5,29.84,NW,315,2.3,2.3,98,0.21,RA,,0.21,WeatherDisplay:10.37,2013-09-12 21:53:00,
2013-09-12 17:58:00,62.1,61.8,29.85,North,0,6.9,6.9,99,0.22,RA,,0.22,WeatherDisplay:10.37,2013-09-12 21:58:00,
2013-09-12 18:03:00,62.1,61.8,29.84,West,270,3.5,3.5,99,0.22,RA,,0.22,WeatherDisplay:10.37,2013-09-12 22:03:00,
2013-09-12 18:08:00,62.1,61.8,29.85,SW,225,4.6,4.6,99,0.24,RA,,0.24,WeatherDisplay:10.37,2013-09-12 22:08:00,
2013-09-12 18:13:00,62.2,62.0,29.84,West,270,3.5,3.5,99,0.19,RA,,0.24,WeatherDisplay:10.37,2013-09-12 22:13:00,
2013-09-12 18:18:00,62.2,62.0,29.84,NW,315,3.5,3.5,99,0.14,,,0.24,WeatherDisplay:10.37,2013-09-12 22:18:00,
2013-09-12 18:23:00,62.2,62.0,29.83,NE,45,4.6,4.6,99,0.15,RA,,0.25,WeatherDisplay:10.37,2013-09-12 22:23:00,
2013-09-12 18:28:00,62.2,62.0,29.83,NNW,338,10.4,10.4,99,0.11,RA,,0.25,WeatherDisplay:10.37,2013-09-12 22:28:00,
2013-09-12 18:33:00,62.2,62.0,29.82,North,0,8.1,8.1,99,0.08,,,0.25,WeatherDisplay:10.37,2013-09-12 22:33:00,
2013-09-12 18:38:00,62.4,62.1,29.83,North,0,8.1,8.1,99,0.07,CLR,,0.25,WeatherDisplay:10.37,2013-09-12 22:38:00,
2013-09-12 18:43:00,62.6,62.3,29.84,NW,315,3.5,3.5,99,0.06,CLR,,0.25,WeatherDisplay:10.37,2013-09-12 22:43:00,
2013-09-12 18:48:00,62.6,62.3,29.84,NNW,338,5.8,5.8,99,0.04,CLR,,0.25,WeatherDisplay:10.37,2013-09-12 22:48:00,
2013-09-12 18:53:00,62.4,62.1,29.83,NW,315,8.1,8.1,99,0.04,CLR,,0.25,WeatherDisplay:10.37,2013-09-12 22:53:00,
2013-09-12 18:58:00,62.4,62.1,29.84,NW,315,5.8,5.8,99,0.02,CLR,,0.25,WeatherDisplay:10.37,2013-09-12 22:58:00,
2013-09-12 19:03:00,62.4,62.1,29.84,NW,315,8.1,8.1,99,0.02,CLR,,0.25,WeatherDisplay:10.37,2013-09-12 23:03:00,
2013-09-12 19:08:00,62.4,62.1,29.84,NW,315,8.1,8.1,99,0.01,CLR,,0.25,WeatherDisplay:10.37,2013-09-12 23:08:00,
2013-09-12 19:13:00,62.2,62.0,29.84,NW,315,4.6,4.6,99,0.01,CLR,,0.25,WeatherDisplay:10.37,2013-09-12 23:13:00,
2013-09-12 19:18:00,62.2,62.0,29.85,NW,315,9.2,9.2,99,0.01,CLR,,0.25,WeatherDisplay:10.37,2013-09-12 23:18:00,
2013-09-12 19:23:00,62.2,62.0,29.85,NW,315,4.6,4.6,99,0.00,CLR,,0.25,WeatherDisplay:10.37,2013-09-12 23:23:00,
2013-09-12 19:28:00,62.1,61.8,29.85,NW,315,10.4,10.4,99,0.00,CLR,,0.25,WeatherDisplay:10.37,2013-09-12 23:28:00,
2013-09-12 19:33:00,62.1,61.8,29.85,NW,315,5.8,5.8,99,0.00,CLR,,0.25,WeatherDisplay:10.37,2013-09-12 23:33:00,
2013-09-12 19:38:00,62.1,61.8,29.85,North,0,17.3,17.3,99,0.00,CLR,,0.25,WeatherDisplay:10.37,2013-09-12 23:38:00,
2013-09-12 19:43:00,61.9,61.6,29.86,North,0,10.4,10.4,99,0.00,CLR,,0.25,WeatherDisplay:10.37,2013-09-12 23:43:00,
2013-09-12 19:48:00,61.5,61.0,29.86,South,180,11.5,11.5,98,0.00,CLR,,0.25,WeatherDisplay:10.37,2013-09-12 23:48:00,
2013-09-12 19:53:00,61.5,60.4,29.86,NW,315,6.0,6.0,96,0.00,CLR,,0.25,WeatherDisplay:10.37,2013-09-12 23:53:00,
2013-09-12 19:58:00,61.3,59.6,29.86,North,0,10.4,10.4,94,0.00,CLR,,0.25,WeatherDisplay:10.37,2013-09-12 23:58:00,
2013-09-12 20:03:00,61.2,59.4,29.85,North,0,6.0,6.0,94,0.00,CLR,,0.25,WeatherDisplay:10.37,2013-09-13 00:03:00,
2013-09-12 20:08:00,61.0,58.6,29.85,North,0,8.1,8.1,92,0.00,CLR,,0.25,WeatherDisplay:10.37,2013-09-13 00:08:00,
2013-09-12 20:13:00,60.8,58.5,29.86,North,0,9.2,9.2,92,0.00,CLR,,0.25,WeatherDisplay:10.37,2013-09-13 00:13:00,
2013-09-12 20:18:00,60.8,58.2,29.86,NW,315,5.8,5.8,91,0.00,CLR,,0.25,WeatherDisplay:10.37,2013-09-13 00:18:00,
2013-09-12 20:23:00,60.8,58.2,29.86,North,0,4.6,4.6,91,0.00,CLR,,0.25,WeatherDisplay:10.37,2013-09-13 00:23:00,
2013-09-12 20:28:00,60.6,58.0,29.87,North,0,8.1,8.1,91,0.00,CLR,,0.25,WeatherDisplay:10.37,2013-09-13 00:28:00,
2013-09-12 20:33:00,60.6,57.7,29.87,NE,45,5.8,5.8,90,0.00,CLR,,0.25,WeatherDisplay:10.37,2013-09-13 00:33:00,
2013-09-12 20:38:00,60.4,57.5,29.87,North,0,6.9,6.9,90,0.00,CLR,,0.25,WeatherDisplay:10.37,2013-09-13 00:38:00,
2013-09-12 20:43:00,60.3,56.7,29.87,North,0,10.4,10.4,88,0.00,CLR,,0.25,WeatherDisplay:10.37,2013-09-13 00:43:00,
2013-09-12 20:48:00,59.9,56.3,29.87,NW,315,6.9,6.9,88,0.00,CLR,,0.25,WeatherDisplay:10.37,2013-09-13 00:48:00,
2013-09-12 20:53:00,59.9,55.7,29.88,NW,315,8.1,8.1,86,0.00,CLR,,0.25,WeatherDisplay:10.37,2013-09-13 00:53:00,
2013-09-12 20:58:00,59.9,55.4,29.88,North,0,11.5,11.5,85,0.00,CLR,,0.25,WeatherDisplay:10.37,2013-09-13 00:58:00,
2013-09-12 21:03:00,59.7,55.2,29.88,NW,315,6.9,6.9,85,0.00,CLR,,0.25,WeatherDisplay:10.37,2013-09-13 01:03:00,
2013-09-12 21:08:00,59.5,54.0,29.88,NW,315,12.7,12.7,82,0.00,CLR,,0.25,WeatherDisplay:10.37,2013-09-13 01:08:00,
2013-09-12 21:13:00,59.5,53.4,29.89,WSW,248,13.8,13.8,80,0.00,CLR,,0.25,WeatherDisplay:10.37,2013-09-13 01:13:00,
2013-09-12 21:18:00,59.4,53.5,29.89,NW,315,13.8,13.8,81,0.00,CLR,,0.25,WeatherDisplay:10.37,2013-09-13 01:18:00,
2013-09-12 21:23:00,59.2,53.4,29.89,NNW,338,8.1,8.1,81,0.00,CLR,,0.25,WeatherDisplay:10.37,2013-09-13 01:23:00,
2013-09-12 21:28:00,59.0,53.5,29.89,NW,315,8.1,8.1,82,0.00,CLR,,0.25,WeatherDisplay:10.37,2013-09-13 01:28:00,
2013-09-12 21:33:00,58.8,53.0,29.90,North,0,9.2,9.2,81,0.00,CLR,,0.25,WeatherDisplay:10.37,2013-09-13 01:33:00,
2013-09-12 21:38:00,58.8,53.0,29.89,North,0,10.4,10.4,81,0.00,CLR,,0.25,WeatherDisplay:10.37,2013-09-13 01:38:00,
2013-09-12 21:43:00,58.8,53.0,29.89,North,0,13.8,13.8,81,0.00,CLR,,0.25,WeatherDisplay:10.37,2013-09-13 01:43:00,
2013-09-12 21:48:00,58.8,52.3,29.89,North,0,15.0,15.0,79,0.00,CLR,,0.25,WeatherDisplay:10.37,2013-09-13 01:48:00,
2013-09-12 21:53:00,59.0,52.5,29.89,North,0,11.5,11.5,79,0.00,CLR,,0.25,WeatherDisplay:10.37,2013-09-13 01:53:00,
2013-09-12 21:58:00,59.0,52.1,29.89,NNW,338,11.5,11.5,78,0.00,CLR,,0.25,WeatherDisplay:10.37,2013-09-13 01:58:00,
2013-09-12 22:03:00,59.0,52.1,29.88,NW,315,8.1,8.1,78,0.00,CLR,,0.25,WeatherDisplay:10.37,2013-09-13 02:03:00,
2013-09-12 22:08:00,59.0,52.1,29.89,NW,315,8.1,8.1,78,0.00,CLR,,0.25,WeatherDisplay:10.37,2013-09-13 02:08:00,
2013-09-12 22:13:00,58.6,51.8,29.89,North,0,10.4,10.4,78,0.00,CLR,,0.25,WeatherDisplay:10.37,2013-09-13 02:13:00,
2013-09-12 22:18:00,58.6,52.1,29.89,NW,315,5.8,5.8,79,0.00,CLR,,0.25,WeatherDisplay:10.37,2013-09-13 02:18:00,
2013-09-12 22:23:00,58.3,51.8,29.89,NNW,338,8.1,8.1,79,0.00,CLR,,0.25,WeatherDisplay:10.37,2013-09-13 02:23:00,
2013-09-12 22:28:00,57.9,51.8,29.89,North,0,3.5,3.5,80,0.00,CLR,,0.25,WeatherDisplay:10.37,2013-09-13 02:28:00,
2013-09-12 22:33:00,57.7,51.9,29.89,NW,315,5.8,5.8,81,0.00,CLR,,0.25,WeatherDisplay:10.37,2013-09-13 02:33:00,
2013-09-12 22:38:00,57.4,51.6,29.89,North,0,3.5,3.5,81,0.00,CLR,,0.25,WeatherDisplay:10.37,2013-09-13 02:38:00,
2013-09-12 22:43:00,57.2,51.8,29.89,NW,315,5.8,5.8,82,0.00,CLR,,0.25,WeatherDisplay:10.37,2013-09-13 02:43:00,
2013-09-12 22:48:00,57.2,51.4,29.89,NW,315,5.8,5.8,81,0.00,CLR,,0.25,WeatherDisplay:10.37,2013-09-13 02:48:00,
2013-09-12 22:53:00,57.0,51.2,29.90,NW,315,5.8,5.8,81,0.00,CLR,,0.25,WeatherDisplay:10.37,2013-09-13 02:53:00,
2013-09-12 22:58:00,57.0,50.9,29.89,North,0,12.7,12.7,80,0.00,CLR,,0.25,WeatherDisplay:10.37,2013-09-13 02:58:00,
2013-09-12 23:04:00,57.0,50.9,29.90,North,0,8.1,8.1,80,0.00,CLR,,0.25,WeatherDisplay:10.37,2013-09-13 03:04:00,
2013-09-12 23:09:00,57.2,50.7,29.89,NW,315,8.1,8.1,79,0.00,CLR,,0.25,WeatherDisplay:10.37,2013-09-13 03:09:00,
2013-09-12 23:14:00,57.6,50.4,29.89,North,0,12.7,12.7,77,0.00,CLR,,0.25,WeatherDisplay:10.37,2013-09-13 03:14:00,
2013-09-12 23:19:00,57.6,50.0,29.89,North,0,11.5,11.5,76,0.00,CLR,,0.25,WeatherDisplay:10.37,2013-09-13 03:19:00,
2013-09-12 23:24:00,57.4,50.2,29.90,North,0,9.2,9.2,77,0.00,CLR,,0.25,WeatherDisplay:10.37,2013-09-13 03:24:00,
2013-09-12 23:29:00,57.2,50.1,29.90,North,0,3.5,3.5,77,0.00,CLR,,0.25,WeatherDisplay:10.37,2013-09-13 03:29:00,
2013-09-12 23:34:00,56.8,49.7,29.90,NW,315,3.5,3.5,77,0.00,CLR,,0.25,WeatherDisplay:10.37,2013-09-13 03:34:00,
2013-09-12 23:39:00,56.5,49.7,29.90,NW,315,5.8,5.8,78,0.00,CLR,,0.25,WeatherDisplay:10.37,2013-09-13 03:39:00,
2013-09-12 23:44:00,56.3,49.9,29.90,NNW,338,3.5,3.5,79,0.00,CLR,,0.25,WeatherDisplay:10.37,2013-09-13 03:44:00,
2013-09-12 23:49:00,55.9,49.9,29.90,West,270,4.6,0.0,80,0.00,CLR,,0.25,WeatherDisplay:10.37,2013-09-13 03:49:00,
2013-09-12 23:54:00,55.9,49.9,29.91,NW,315,1.2,0.0,80,0.00,CLR,,0.25,WeatherDisplay:10.37,2013-09-13 03:54:00,
2013-09-12 23:59:00,55.6,49.8,29.91,NW,315,3.5,3.5,81,0.00,CLR,,0.25,WeatherDisplay:10.37,2013-09-13 03:59:00,